Time;durP1;ratioP1;P1;durP2;ratioP2;P2;SDS_P1;SDS_P2;PMS_P1;PMS_P2;Temp;Humidity;BMP_temperature;BMP_pressure;BME280_temperature;BME280_humidity;BME280_pressure;Samples;Min_cycle;Max_cycle;Signal;HPM_P1;HPM_P2
2023/09/03 07:28:34;;;;;;;16.08;8.18;;;22.30;99.90;;;;;;4223715;23;20228;-71
2023/09/03 07:31:01;;;;;;;16.00;9.35;;;23.10;99.90;;;;;;4955294;28;20242;-70
2023/09/03 07:33:27;;;;;;;17.65;9.95;;;23.30;99.90;;;;;;4957542;28;20243;-68
2023/09/03 07:35:54;;;;;;;16.05;9.73;;;23.70;99.90;;;;;;4945334;28;20764;-68
2023/09/03 07:38:21;;;;;;;15.43;9.32;;;24.00;99.90;;;;;;4951191;29;20244;-69
2023/09/03 07:40:48;;;;;;;15.18;9.95;;;24.20;99.90;;;;;;4937561;29;20201;-69
2023/09/03 07:43:15;;;;;;;17.58;10.68;;;24.70;99.90;;;;;;4938113;29;20205;-69
2023/09/03 07:45:44;;;;;;;14.65;9.10;;;25.50;99.90;;;;;;4937428;29;20319;-68
2023/09/03 07:48:10;;;;;;;16.77;10.27;;;25.10;99.90;;;;;;4922901;29;20244;-69
2023/09/03 07:50:39;;;;;;;17.55;9.90;;;24.70;99.90;;;;;;4948159;28;20291;-68
2023/09/03 07:53:05;;;;;;;17.08;9.60;;;24.90;99.90;;;;;;4937903;29;20248;-70
2023/09/03 07:55:32;;;;;;;17.98;10.60;;;25.40;99.90;;;;;;4937589;29;20260;-69
2023/09/03 07:58:00;;;;;;;16.58;10.27;;;25.80;99.90;;;;;;4937210;29;20213;-69
2023/09/03 08:00:27;;;;;;;16.88;10.38;;;25.40;99.90;;;;;;4935994;29;20374;-70
2023/09/03 08:02:55;;;;;;;16.60;10.02;;;25.60;99.90;;;;;;4937613;29;20548;-69
2023/09/03 08:05:24;;;;;;;18.05;10.32;;;25.50;99.90;;;;;;4937090;29;20271;-70
2023/09/03 08:07:51;;;;;;;15.65;9.93;;;25.50;99.90;;;;;;4937618;29;20240;-68
2023/09/03 08:10:17;;;;;;;18.33;9.90;;;25.40;99.90;;;;;;4921779;29;20212;-69
2023/09/03 08:12:45;;;;;;;18.50;10.07;;;24.80;99.90;;;;;;4937188;29;20241;-70
2023/09/03 08:15:13;;;;;;;15.55;9.43;;;24.80;99.90;;;;;;4937199;29;20323;-70
2023/09/03 08:17:40;;;;;;;20.75;10.23;;;24.70;99.90;;;;;;4937393;29;20267;-70
2023/09/03 08:20:09;;;;;;;13.80;8.55;;;25.10;99.90;;;;;;4934148;29;20244;-70
2023/09/03 08:22:37;;;;;;;17.13;9.73;;;25.40;99.90;;;;;;4938518;29;20201;-71
2023/09/03 18:13:22;;;;;;;1.85;1.50;;;22.00;99.90;;;;;;4895450;29;20672;-72
2023/09/03 18:15:55;;;;;;;2.53;1.40;;;21.90;99.90;;;;;;4897893;29;20297;-72
2023/09/03 18:18:22;;;;;;;2.67;1.45;;;21.90;99.90;;;;;;4897865;29;20231;-72
2023/09/03 18:20:49;;;;;;;2.28;1.70;;;21.90;99.90;;;;;;4894641;29;20283;-71
2023/09/03 18:23:16;;;;;;;15.48;6.63;;;21.90;99.90;;;;;;4890916;29;20667;-71
2023/09/03 18:25:43;;;;;;;3.88;2.40;;;21.80;99.90;;;;;;4893294;29;20682;-72
2023/09/03 18:28:10;;;;;;;1.83;1.50;;;21.70;99.90;;;;;;4898139;29;20273;-71
2023/09/03 18:30:38;;;;;;;1.40;1.20;;;21.60;99.90;;;;;;4897826;29;20248;-72
2023/09/03 18:33:05;;;;;;;2.28;1.70;;;21.50;99.90;;;;;;4913958;29;20245;-72
2023/09/03 18:35:33;;;;;;;3.08;1.88;;;21.40;99.90;;;;;;4894210;29;20240;-72
2023/09/03 18:38:00;;;;;;;2.60;1.70;;;21.20;99.90;;;;;;4903040;29;20317;-73
2023/09/03 18:40:29;;;;;;;3.33;1.98;;;21.10;99.90;;;;;;4895649;29;20243;-72
2023/09/03 18:42:57;;;;;;;2.10;1.52;;;21.00;99.90;;;;;;4910697;29;20208;-72
2023/09/03 18:45:24;;;;;;;3.13;1.55;;;20.90;99.90;;;;;;4898570;29;20294;-71
2023/09/03 18:47:53;;;;;;;2.60;1.70;;;20.90;99.90;;;;;;4908279;29;20234;-72
2023/09/03 18:50:20;;;;;;;4.35;1.60;;;20.90;99.90;;;;;;4898907;29;20297;-72
2023/09/03 18:52:46;;;;;;;3.38;1.67;;;20.80;99.90;;;;;;4895341;29;20639;-71
2023/09/03 18:55:13;;;;;;;1.85;1.35;;;20.70;99.90;;;;;;4901138;29;20253;-72
2023/09/03 18:57:40;;;;;;;1.52;1.30;;;20.50;99.90;;;;;;4902038;29;20294;-72
2023/09/03 19:00:10;;;;;;;1.95;1.58;;;20.50;99.90;;;;;;4906257;29;20643;-72
2023/09/03 19:02:37;;;;;;;5.32;2.53;;;20.70;99.90;;;;;;4904413;29;20215;-72
2023/09/03 19:05:06;;;;;;;2.70;1.60;;;20.70;99.90;;;;;;4914525;29;20205;-72
2023/09/03 19:07:33;;;;;;;3.58;2.17;;;20.70;99.90;;;;;;4902834;29;20269;-71
2023/09/03 19:10:00;;;;;;;4.13;2.03;;;20.60;99.90;;;;;;4913390;29;20241;-72
2023/09/03 19:12:28;;;;;;;4.32;1.85;;;20.60;99.90;;;;;;4902350;29;20293;-70
2023/09/03 19:14:54;;;;;;;3.75;2.38;;;20.50;99.90;;;;;;4911511;29;20252;-71
2023/09/03 19:17:21;;;;;;;2.33;1.70;;;20.40;99.90;;;;;;4901807;29;20237;-72
2023/09/03 19:19:48;;;;;;;3.58;2.40;;;20.40;99.90;;;;;;4910629;29;20268;-71
2023/09/03 19:22:16;;;;;;;3.63;1.83;;;20.30;99.90;;;;;;4903160;29;20749;-71
2023/09/03 19:24:43;;;;;;;2.97;1.92;;;20.20;99.90;;;;;;4911477;29;20294;-71
2023/09/03 19:27:12;;;;;;;3.15;2.28;;;20.10;99.90;;;;;;4904447;29;20281;-72
2023/09/03 19:29:39;;;;;;;3.00;2.00;;;20.10;99.90;;;;;;4905816;29;20237;-72
2023/09/03 19:32:06;;;;;;;2.75;1.70;;;20.00;99.90;;;;;;4904692;29;20740;-72
2023/09/03 19:34:33;;;;;;;3.30;2.33;;;19.80;99.90;;;;;;4912256;29;20253;-72
2023/09/03 19:37:00;;;;;;;2.65;1.95;;;19.80;99.90;;;;;;4904834;29;20301;-72
2023/09/03 19:39:28;;;;;;;3.47;2.20;;;19.70;99.90;;;;;;4910645;29;20321;-72
2023/09/03 19:41:55;;;;;;;3.53;2.38;;;19.60;99.90;;;;;;4907898;29;20254;-72
2023/09/03 19:44:22;;;;;;;6.60;4.35;;;19.60;99.90;;;;;;4899346;29;20615;-71
2023/09/03 19:46:49;;;;;;;3.75;2.30;;;19.50;99.90;;;;;;4900122;29;20324;-71
2023/09/03 19:49:16;;;;;;;2.55;1.80;;;19.40;99.90;;;;;;4900803;29;20235;-71
2023/09/03 19:51:43;;;;;;;2.22;1.60;;;19.40;99.90;;;;;;4895867;29;20261;-71
2023/09/03 19:54:12;;;;;;;3.63;2.10;;;19.20;99.90;;;;;;4900454;29;20240;-72
2023/09/03 19:56:40;;;;;;;3.00;2.13;;;19.20;99.90;;;;;;4901123;29;20215;-72
2023/09/03 19:59:07;;;;;;;2.92;1.98;;;19.10;99.90;;;;;;4900699;29;20254;-72
2023/09/03 20:01:34;;;;;;;4.45;2.50;;;19.00;99.90;;;;;;4912537;29;20301;-72
2023/09/03 20:04:01;;;;;;;4.38;2.03;;;18.90;99.90;;;;;;4906359;29;20295;-72
2023/09/03 20:06:28;;;;;;;6.10;2.80;;;18.90;99.90;;;;;;4911862;29;20265;-72
2023/09/03 20:08:55;;;;;;;3.70;2.28;;;18.90;99.90;;;;;;4903545;29;20748;-71
2023/09/03 20:11:22;;;;;;;3.67;2.05;;;18.80;99.90;;;;;;4910846;29;20213;-71
2023/09/03 20:13:52;;;;;;;4.28;2.47;;;18.70;99.90;;;;;;4899887;29;20306;-71
2023/09/03 20:16:20;;;;;;;3.58;2.33;;;18.80;99.90;;;;;;4908579;29;20512;-72
2023/09/03 20:18:49;;;;;;;2.45;2.00;;;18.70;99.90;;;;;;4909334;29;20273;-72
2023/09/03 20:21:16;;;;;;;4.00;2.67;;;18.70;99.90;;;;;;4909477;29;20215;-71
2023/09/03 20:23:43;;;;;;;4.25;2.83;;;18.70;99.90;;;;;;4899565;29;20302;-72
2023/09/03 20:26:10;;;;;;;3.33;2.30;;;18.60;99.90;;;;;;4898971;29;20321;-72
2023/09/03 20:28:37;;;;;;;2.15;1.83;;;18.50;99.90;;;;;;4895467;29;20238;-72
2023/09/03 20:31:05;;;;;;;3.40;1.88;;;18.60;99.90;;;;;;4900948;29;20207;-72
2023/09/03 20:33:32;;;;;;;3.75;1.80;;;18.50;99.90;;;;;;4905533;29;20289;-72
2023/09/03 20:35:59;;;;;;;3.42;1.85;;;18.50;99.90;;;;;;4906410;29;20288;-71
2023/09/03 20:38:27;;;;;;;3.00;1.85;;;18.40;99.90;;;;;;4913637;29;20313;-70
2023/09/03 20:40:55;;;;;;;2.85;1.70;;;18.40;99.90;;;;;;4900825;29;20222;-70
2023/09/03 20:43:23;;;;;;;4.57;2.60;;;18.40;99.90;;;;;;4899459;29;20210;-69
2023/09/03 20:45:51;;;;;;;5.60;2.05;;;18.40;99.90;;;;;;4899713;29;20207;-71
2023/09/03 20:48:19;;;;;;;9.15;5.03;;;18.30;99.90;;;;;;4899178;29;20266;-70
2023/09/03 20:50:46;;;;;;;5.03;3.25;;;18.20;99.90;;;;;;4901806;29;20237;-71
2023/09/03 20:53:13;;;;;;;4.72;2.67;;;18.10;99.90;;;;;;4908788;29;20216;-72
2023/09/03 20:55:41;;;;;;;3.38;2.25;;;18.00;99.90;;;;;;4900132;29;20253;-72
2023/09/03 20:58:08;;;;;;;4.03;1.95;;;17.90;99.90;;;;;;4898531;29;20238;-71
2023/09/03 21:00:36;;;;;;;3.85;2.00;;;17.80;99.90;;;;;;4898872;29;20611;-72
2023/09/03 21:03:03;;;;;;;2.47;2.00;;;17.70;99.90;;;;;;4906318;29;20221;-72
2023/09/03 21:05:32;;;;;;;2.97;2.20;;;17.60;99.90;;;;;;4901687;29;20641;-72
2023/09/03 21:07:59;;;;;;;2.30;1.90;;;17.60;99.90;;;;;;4916555;29;20273;-69
2023/09/03 21:10:26;;;;;;;4.05;2.15;;;17.60;99.90;;;;;;4917301;29;20264;-70
